sensor_id;sensor_type;location;lat;lon;timestamp;P1;durP1;ratioP1;P2;durP2;ratioP2
44606;SDS011;30315;46.072;14.474;2023-02-26T00:01:17;1.92;;;1.83;;
44606;SDS011;30315;46.072;14.474;2023-02-26T00:06:16;2.22;;;2.10;;
44606;SDS011;30315;46.072;14.474;2023-02-26T00:08:43;2.20;;;2.10;;
44606;SDS011;30315;46.072;14.474;2023-02-26T00:11:10;1.95;;;1.85;;
44606;SDS011;30315;46.072;14.474;2023-02-26T00:13:38;1.92;;;1.83;;
44606;SDS011;30315;46.072;14.474;2023-02-26T00:19:00;1.90;;;1.80;;
44606;SDS011;30315;46.072;14.474;2023-02-26T00:21:29;1.60;;;1.60;;
44606;SDS011;30315;46.072;14.474;2023-02-26T00:23:57;1.85;;;1.75;;
44606;SDS011;30315;46.072;14.474;2023-02-26T00:26:26;1.42;;;1.42;;
44606;SDS011;30315;46.072;14.474;2023-02-26T00:28:54;1.70;;;1.70;;
44606;SDS011;30315;46.072;14.474;2023-02-26T00:31:22;1.30;;;1.30;;
44606;SDS011;30315;46.072;14.474;2023-02-26T00:33:51;1.30;;;1.30;;
44606;SDS011;30315;46.072;14.474;2023-02-26T00:41:43;1.58;;;1.58;;
44606;SDS011;30315;46.072;14.474;2023-02-26T00:44:10;1.63;;;1.60;;
44606;SDS011;30315;46.072;14.474;2023-02-26T00:49:48;1.33;;;1.30;;
44606;SDS011;30315;46.072;14.474;2023-02-26T00:52:35;1.67;;;1.67;;
44606;SDS011;30315;46.072;14.474;2023-02-26T00:55:09;1.33;;;1.33;;
44606;SDS011;30315;46.072;14.474;2023-02-26T00:57:36;1.40;;;1.40;;
44606;SDS011;30315;46.072;14.474;2023-02-26T01:00:04;1.20;;;1.20;;
44606;SDS011;30315;46.072;14.474;2023-02-26T01:02:34;1.40;;;1.30;;
44606;SDS011;30315;46.072;14.474;2023-02-26T01:05:01;1.85;;;1.38;;
44606;SDS011;30315;46.072;14.474;2023-02-26T01:07:29;1.50;;;1.50;;
44606;SDS011;30315;46.072;14.474;2023-02-26T01:10:05;1.83;;;1.73;;
44606;SDS011;30315;46.072;14.474;2023-02-26T01:12:33;1.30;;;1.30;;
44606;SDS011;30315;46.072;14.474;2023-02-26T01:15:00;1.60;;;1.60;;
44606;SDS011;30315;46.072;14.474;2023-02-26T01:17:28;1.30;;;1.30;;
44606;SDS011;30315;46.072;14.474;2023-02-26T01:20:04;1.38;;;1.38;;
44606;SDS011;30315;46.072;14.474;2023-02-26T01:22:44;1.70;;;1.60;;
44606;SDS011;30315;46.072;14.474;2023-02-26T01:27:52;1.58;;;1.48;;
44606;SDS011;30315;46.072;14.474;2023-02-26T01:30:21;1.45;;;1.45;;
44606;SDS011;30315;46.072;14.474;2023-02-26T01:33:06;1.63;;;1.55;;
44606;SDS011;30315;46.072;14.474;2023-02-26T01:35:46;1.30;;;1.30;;
44606;SDS011;30315;46.072;14.474;2023-02-26T01:38:17;1.33;;;1.33;;
44606;SDS011;30315;46.072;14.474;2023-02-26T01:41:09;1.50;;;1.50;;
44606;SDS011;30315;46.072;14.474;2023-02-26T01:43:40;1.50;;;1.50;;
44606;SDS011;30315;46.072;14.474;2023-02-26T01:49:12;1.35;;;1.35;;
44606;SDS011;30315;46.072;14.474;2023-02-26T01:54:13;1.70;;;1.60;;
44606;SDS011;30315;46.072;14.474;2023-02-26T01:56:41;1.85;;;1.75;;
44606;SDS011;30315;46.072;14.474;2023-02-26T01:59:10;2.05;;;1.65;;
44606;SDS011;30315;46.072;14.474;2023-02-26T02:01:41;1.80;;;1.38;;
44606;SDS011;30315;46.072;14.474;2023-02-26T02:04:12;1.80;;;1.70;;
44606;SDS011;30315;46.072;14.474;2023-02-26T02:06:41;1.58;;;1.48;;
44606;SDS011;30315;46.072;14.474;2023-02-26T02:09:09;1.98;;;1.88;;
44606;SDS011;30315;46.072;14.474;2023-02-26T02:11:39;2.03;;;1.92;;
44606;SDS011;30315;46.072;14.474;2023-02-26T02:20:19;1.53;;;1.53;;
44606;SDS011;30315;46.072;14.474;2023-02-26T02:33:46;1.95;;;1.88;;
44606;SDS011;30315;46.072;14.474;2023-02-26T02:39:23;2.00;;;1.90;;
44606;SDS011;30315;46.072;14.474;2023-02-26T02:42:05;2.00;;;1.90;;
44606;SDS011;30315;46.072;14.474;2023-02-26T02:44:40;1.73;;;1.73;;
44606;SDS011;30315;46.072;14.474;2023-02-26T02:47:12;2.03;;;1.92;;
44606;SDS011;30315;46.072;14.474;2023-02-26T02:52:16;1.45;;;1.45;;
44606;SDS011;30315;46.072;14.474;2023-02-26T02:54:49;2.10;;;2.00;;
44606;SDS011;30315;46.072;14.474;2023-02-26T02:57:25;1.52;;;1.52;;
44606;SDS011;30315;46.072;14.474;2023-02-26T03:00:04;1.48;;;1.48;;
44606;SDS011;30315;46.072;14.474;2023-02-26T03:05:25;1.90;;;1.80;;
44606;SDS011;30315;46.072;14.474;2023-02-26T03:07:54;1.60;;;1.60;;
44606;SDS011;30315;46.072;14.474;2023-02-26T03:10:24;1.67;;;1.67;;
44606;SDS011;30315;46.072;14.474;2023-02-26T03:12:53;1.50;;;1.50;;
44606;SDS011;30315;46.072;14.474;2023-02-26T03:15:24;1.70;;;1.70;;
44606;SDS011;30315;46.072;14.474;2023-02-26T03:18:05;1.50;;;1.50;;
44606;SDS011;30315;46.072;14.474;2023-02-26T03:20:46;1.50;;;1.50;;
44606;SDS011;30315;46.072;14.474;2023-02-26T03:23:33;1.38;;;1.30;;
44606;SDS011;30315;46.072;14.474;2023-02-26T03:26:09;1.67;;;1.67;;
44606;SDS011;30315;46.072;14.474;2023-02-26T03:28:53;1.63;;;1.63;;
44606;SDS011;30315;46.072;14.474;2023-02-26T03:31:36;1.50;;;1.45;;
44606;SDS011;30315;46.072;14.474;2023-02-26T03:34:28;1.70;;;1.60;;
44606;SDS011;30315;46.072;14.474;2023-02-26T03:39:58;1.52;;;1.52;;
44606;SDS011;30315;46.072;14.474;2023-02-26T03:42:38;1.55;;;1.55;;
44606;SDS011;30315;46.072;14.474;2023-02-26T03:45:19;1.40;;;1.40;;
44606;SDS011;30315;46.072;14.474;2023-02-26T03:47:54;1.65;;;1.65;;
44606;SDS011;30315;46.072;14.474;2023-02-26T03:50:40;1.90;;;1.80;;
44606;SDS011;30315;46.072;14.474;2023-02-26T03:53:53;1.80;;;1.80;;
44606;SDS011;30315;46.072;14.474;2023-02-26T03:56:52;1.33;;;1.33;;
44606;SDS011;30315;46.072;14.474;2023-02-26T03:59:43;1.48;;;1.48;;
44606;SDS011;30315;46.072;14.474;2023-02-26T04:02:57;1.30;;;1.30;;
44606;SDS011;30315;46.072;14.474;2023-02-26T04:05:31;1.20;;;1.20;;
44606;SDS011;30315;46.072;14.474;2023-02-26T04:08:01;1.60;;;1.60;;
44606;SDS011;30315;46.072;14.474;2023-02-26T04:10:46;1.25;;;1.25;;
44606;SDS011;30315;46.072;14.474;2023-02-26T04:13:20;1.40;;;1.40;;
44606;SDS011;30315;46.072;14.474;2023-02-26T04:15:48;1.48;;;1.48;;
44606;SDS011;30315;46.072;14.474;2023-02-26T04:18:15;1.40;;;1.40;;
44606;SDS011;30315;46.072;14.474;2023-02-26T04:20:42;1.23;;;1.23;;
44606;SDS011;30315;46.072;14.474;2023-02-26T04:23:09;1.35;;;1.35;;
44606;SDS011;30315;46.072;14.474;2023-02-26T04:25:37;1.40;;;1.40;;
44606;SDS011;30315;46.072;14.474;2023-02-26T04:28:05;1.10;;;1.10;;
44606;SDS011;30315;46.072;14.474;2023-02-26T04:30:32;1.33;;;1.33;;
44606;SDS011;30315;46.072;14.474;2023-02-26T04:33:01;1.10;;;1.10;;
44606;SDS011;30315;46.072;14.474;2023-02-26T04:35:29;1.40;;;1.40;;
44606;SDS011;30315;46.072;14.474;2023-02-26T04:37:56;1.20;;;1.20;;
44606;SDS011;30315;46.072;14.474;2023-02-26T04:40:23;1.30;;;1.30;;
44606;SDS011;30315;46.072;14.474;2023-02-26T04:42:51;1.33;;;1.33;;
44606;SDS011;30315;46.072;14.474;2023-02-26T04:45:23;1.35;;;1.20;;
44606;SDS011;30315;46.072;14.474;2023-02-26T04:47:50;1.10;;;1.10;;
44606;SDS011;30315;46.072;14.474;2023-02-26T04:50:18;1.25;;;1.25;;
44606;SDS011;30315;46.072;14.474;2023-02-26T04:52:49;1.30;;;1.30;;
44606;SDS011;30315;46.072;14.474;2023-02-26T04:55:17;1.13;;;1.13;;
44606;SDS011;30315;46.072;14.474;2023-02-26T04:57:44;1.48;;;1.48;;
44606;SDS011;30315;46.072;14.474;2023-02-26T05:00:12;1.20;;;1.20;;
44606;SDS011;30315;46.072;14.474;2023-02-26T05:02:40;1.50;;;1.50;;
44606;SDS011;30315;46.072;14.474;2023-02-26T05:05:07;1.20;;;1.20;;
44606;SDS011;30315;46.072;14.474;2023-02-26T05:07:35;1.58;;;1.58;;
44606;SDS011;30315;46.072;14.474;2023-02-26T05:10:03;1.50;;;1.50;;
44606;SDS011;30315;46.072;14.474;2023-02-26T05:12:33;1.20;;;1.20;;
44606;SDS011;30315;46.072;14.474;2023-02-26T05:15:00;1.30;;;1.30;;
44606;SDS011;30315;46.072;14.474;2023-02-26T05:17:27;1.40;;;1.40;;
44606;SDS011;30315;46.072;14.474;2023-02-26T05:19:55;1.55;;;1.55;;
44606;SDS011;30315;46.072;14.474;2023-02-26T05:22:22;1.30;;;1.30;;
44606;SDS011;30315;46.072;14.474;2023-02-26T05:24:49;1.33;;;1.33;;
44606;SDS011;30315;46.072;14.474;2023-02-26T05:27:16;1.63;;;1.63;;
44606;SDS011;30315;46.072;14.474;2023-02-26T05:29:45;1.50;;;1.50;;
44606;SDS011;30315;46.072;14.474;2023-02-26T05:32:13;1.50;;;1.50;;
44606;SDS011;30315;46.072;14.474;2023-02-26T05:34:42;1.27;;;1.27;;
44606;SDS011;30315;46.072;14.474;2023-02-26T05:37:09;1.58;;;1.52;;
44606;SDS011;30315;46.072;14.474;2023-02-26T05:39:36;1.63;;;1.52;;
44606;SDS011;30315;46.072;14.474;2023-02-26T05:42:03;1.40;;;1.40;;
44606;SDS011;30315;46.072;14.474;2023-02-26T05:44:30;1.70;;;1.63;;
44606;SDS011;30315;46.072;14.474;2023-02-26T05:46:57;1.90;;;1.85;;
44606;SDS011;30315;46.072;14.474;2023-02-26T05:49:24;2.10;;;2.00;;
44606;SDS011;30315;46.072;14.474;2023-02-26T05:51:50;1.52;;;1.52;;
44606;SDS011;30315;46.072;14.474;2023-02-26T05:54:17;1.85;;;1.40;;
44606;SDS011;30315;46.072;14.474;2023-02-26T05:56:44;1.92;;;1.83;;
44606;SDS011;30315;46.072;14.474;2023-02-26T05:59:12;1.90;;;1.90;;
44606;SDS011;30315;46.072;14.474;2023-02-26T06:01:38;1.50;;;1.40;;
44606;SDS011;30315;46.072;14.474;2023-02-26T06:04:05;1.70;;;1.67;;
44606;SDS011;30315;46.072;14.474;2023-02-26T06:06:32;1.70;;;1.60;;
44606;SDS011;30315;46.072;14.474;2023-02-26T06:09:00;2.00;;;1.88;;
44606;SDS011;30315;46.072;14.474;2023-02-26T06:11:30;1.80;;;1.80;;
44606;SDS011;30315;46.072;14.474;2023-02-26T06:13:59;1.58;;;1.48;;
44606;SDS011;30315;46.072;14.474;2023-02-26T06:16:26;1.98;;;1.88;;
44606;SDS011;30315;46.072;14.474;2023-02-26T06:18:54;2.00;;;1.90;;
44606;SDS011;30315;46.072;14.474;2023-02-26T06:21:20;1.63;;;1.50;;
44606;SDS011;30315;46.072;14.474;2023-02-26T06:23:47;2.38;;;2.17;;
44606;SDS011;30315;46.072;14.474;2023-02-26T06:26:15;2.00;;;1.90;;
44606;SDS011;30315;46.072;14.474;2023-02-26T06:28:41;1.95;;;1.90;;
44606;SDS011;30315;46.072;14.474;2023-02-26T06:31:08;2.00;;;1.90;;
44606;SDS011;30315;46.072;14.474;2023-02-26T06:33:35;2.05;;;1.95;;
44606;SDS011;30315;46.072;14.474;2023-02-26T06:36:02;2.03;;;1.92;;
44606;SDS011;30315;46.072;14.474;2023-02-26T06:38:29;1.88;;;1.77;;
44606;SDS011;30315;46.072;14.474;2023-02-26T06:40:56;1.83;;;1.83;;
44606;SDS011;30315;46.072;14.474;2023-02-26T06:43:24;2.50;;;2.30;;
44606;SDS011;30315;46.072;14.474;2023-02-26T06:45:51;1.65;;;1.65;;
44606;SDS011;30315;46.072;14.474;2023-02-26T06:48:18;1.88;;;1.85;;
44606;SDS011;30315;46.072;14.474;2023-02-26T06:50:45;2.00;;;2.00;;
44606;SDS011;30315;46.072;14.474;2023-02-26T06:53:13;1.77;;;1.67;;
44606;SDS011;30315;46.072;14.474;2023-02-26T06:55:43;1.80;;;1.70;;
44606;SDS011;30315;46.072;14.474;2023-02-26T06:58:11;3.45;;;1.70;;
44606;SDS011;30315;46.072;14.474;2023-02-26T07:00:39;1.85;;;1.80;;
44606;SDS011;30315;46.072;14.474;2023-02-26T07:03:09;1.85;;;1.83;;
44606;SDS011;30315;46.072;14.474;2023-02-26T07:05:39;2.20;;;2.10;;
44606;SDS011;30315;46.072;14.474;2023-02-26T07:08:06;2.00;;;1.90;;
44606;SDS011;30315;46.072;14.474;2023-02-26T07:10:34;2.28;;;2.17;;
44606;SDS011;30315;46.072;14.474;2023-02-26T07:13:02;1.90;;;1.90;;
44606;SDS011;30315;46.072;14.474;2023-02-26T07:15:29;2.00;;;1.90;;
44606;SDS011;30315;46.072;14.474;2023-02-26T07:17:56;2.20;;;2.10;;
44606;SDS011;30315;46.072;14.474;2023-02-26T07:20:25;2.17;;;2.07;;
44606;SDS011;30315;46.072;14.474;2023-02-26T07:25:22;2.20;;;2.10;;
44606;SDS011;30315;46.072;14.474;2023-02-26T07:27:50;2.50;;;2.40;;
44606;SDS011;30315;46.072;14.474;2023-02-26T07:30:17;1.80;;;1.70;;
44606;SDS011;30315;46.072;14.474;2023-02-26T07:32:44;1.92;;;1.83;;
44606;SDS011;30315;46.072;14.474;2023-02-26T07:35:11;2.33;;;2.15;;
44606;SDS011;30315;46.072;14.474;2023-02-26T07:37:38;2.42;;;2.22;;
44606;SDS011;30315;46.072;14.474;2023-02-26T07:40:06;2.60;;;2.50;;
44606;SDS011;30315;46.072;14.474;2023-02-26T07:42:34;2.70;;;2.60;;
44606;SDS011;30315;46.072;14.474;2023-02-26T07:45:01;2.80;;;2.70;;
44606;SDS011;30315;46.072;14.474;2023-02-26T07:47:29;2.80;;;2.60;;
44606;SDS011;30315;46.072;14.474;2023-02-26T07:49:56;2.25;;;2.15;;
44606;SDS011;30315;46.072;14.474;2023-02-26T07:52:23;2.65;;;2.55;;
44606;SDS011;30315;46.072;14.474;2023-02-26T07:54:51;2.30;;;2.20;;
44606;SDS011;30315;46.072;14.474;2023-02-26T07:57:18;2.60;;;2.50;;
44606;SDS011;30315;46.072;14.474;2023-02-26T07:59:45;2.38;;;2.28;;
44606;SDS011;30315;46.072;14.474;2023-02-26T08:02:13;2.50;;;2.40;;
44606;SDS011;30315;46.072;14.474;2023-02-26T08:04:42;3.05;;;2.85;;
44606;SDS011;30315;46.072;14.474;2023-02-26T08:07:09;2.50;;;2.40;;
44606;SDS011;30315;46.072;14.474;2023-02-26T08:09:36;2.58;;;2.38;;
44606;SDS011;30315;46.072;14.474;2023-02-26T08:12:03;2.40;;;2.20;;
44606;SDS011;30315;46.072;14.474;2023-02-26T08:14:30;2.20;;;2.10;;
44606;SDS011;30315;46.072;14.474;2023-02-26T08:17:00;2.50;;;2.40;;
44606;SDS011;30315;46.072;14.474;2023-02-26T08:19:27;2.50;;;2.38;;
44606;SDS011;30315;46.072;14.474;2023-02-26T08:21:54;2.28;;;2.17;;
44606;SDS011;30315;46.072;14.474;2023-02-26T08:24:21;2.88;;;2.78;;
44606;SDS011;30315;46.072;14.474;2023-02-26T08:26:49;3.13;;;2.97;;
44606;SDS011;30315;46.072;14.474;2023-02-26T08:29:16;3.08;;;2.97;;
44606;SDS011;30315;46.072;14.474;2023-02-26T08:31:43;2.42;;;2.33;;
44606;SDS011;30315;46.072;14.474;2023-02-26T08:34:10;2.75;;;2.58;;
44606;SDS011;30315;46.072;14.474;2023-02-26T08:36:39;2.65;;;2.55;;
44606;SDS011;30315;46.072;14.474;2023-02-26T08:39:07;2.53;;;2.42;;
44606;SDS011;30315;46.072;14.474;2023-02-26T08:41:35;3.53;;;3.33;;
44606;SDS011;30315;46.072;14.474;2023-02-26T08:44:05;3.30;;;3.10;;
44606;SDS011;30315;46.072;14.474;2023-02-26T08:46:35;3.25;;;3.05;;
44606;SDS011;30315;46.072;14.474;2023-02-26T08:49:02;3.42;;;3.22;;
44606;SDS011;30315;46.072;14.474;2023-02-26T08:51:29;3.17;;;2.97;;
44606;SDS011;30315;46.072;14.474;2023-02-26T08:53:56;4.07;;;3.63;;
44606;SDS011;30315;46.072;14.474;2023-02-26T08:56:23;2.97;;;2.88;;
44606;SDS011;30315;46.072;14.474;2023-02-26T08:58:51;2.65;;;2.55;;
44606;SDS011;30315;46.072;14.474;2023-02-26T09:01:18;3.22;;;3.03;;
44606;SDS011;30315;46.072;14.474;2023-02-26T09:03:45;3.25;;;3.05;;
44606;SDS011;30315;46.072;14.474;2023-02-26T09:06:12;2.90;;;2.80;;
44606;SDS011;30315;46.072;14.474;2023-02-26T09:08:38;3.63;;;3.42;;
44606;SDS011;30315;46.072;14.474;2023-02-26T09:11:05;3.33;;;3.13;;
44606;SDS011;30315;46.072;14.474;2023-02-26T09:13:32;3.88;;;3.33;;
44606;SDS011;30315;46.072;14.474;2023-02-26T09:15:59;4.18;;;3.80;;
44606;SDS011;30315;46.072;14.474;2023-02-26T09:18:26;4.30;;;4.00;;
44606;SDS011;30315;46.072;14.474;2023-02-26T09:20:54;4.70;;;4.32;;
44606;SDS011;30315;46.072;14.474;2023-02-26T09:23:21;4.35;;;4.05;;
44606;SDS011;30315;46.072;14.474;2023-02-26T09:25:52;4.10;;;3.85;;
44606;SDS011;30315;46.072;14.474;2023-02-26T09:28:20;4.25;;;3.92;;
44606;SDS011;30315;46.072;14.474;2023-02-26T09:30:52;4.05;;;3.80;;
44606;SDS011;30315;46.072;14.474;2023-02-26T09:33:20;4.93;;;4.63;;
44606;SDS011;30315;46.072;14.474;2023-02-26T09:35:47;4.72;;;4.30;;
44606;SDS011;30315;46.072;14.474;2023-02-26T09:38:15;4.30;;;3.95;;
44606;SDS011;30315;46.072;14.474;2023-02-26T09:40:51;3.97;;;3.55;;
44606;SDS011;30315;46.072;14.474;2023-02-26T09:46:01;3.88;;;3.67;;
44606;SDS011;30315;46.072;14.474;2023-02-26T09:48:44;4.43;;;4.13;;
44606;SDS011;30315;46.072;14.474;2023-02-26T09:51:16;4.20;;;3.90;;
44606;SDS011;30315;46.072;14.474;2023-02-26T09:53:46;4.20;;;3.90;;
44606;SDS011;30315;46.072;14.474;2023-02-26T09:56:16;4.10;;;3.90;;
44606;SDS011;30315;46.072;14.474;2023-02-26T09:58:50;3.90;;;3.60;;
44606;SDS011;30315;46.072;14.474;2023-02-26T10:06:54;4.50;;;4.20;;
44606;SDS011;30315;46.072;14.474;2023-02-26T10:12:23;5.43;;;4.50;;
44606;SDS011;30315;46.072;14.474;2023-02-26T10:15:10;4.88;;;4.50;;
44606;SDS011;30315;46.072;14.474;2023-02-26T10:17:53;4.68;;;4.35;;
44606;SDS011;30315;46.072;14.474;2023-02-26T10:26:21;4.40;;;4.10;;
44606;SDS011;30315;46.072;14.474;2023-02-26T10:34:33;4.57;;;4.28;;
44606;SDS011;30315;46.072;14.474;2023-02-26T10:37:10;4.05;;;3.85;;
44606;SDS011;30315;46.072;14.474;2023-02-26T10:39:50;4.20;;;4.00;;
44606;SDS011;30315;46.072;14.474;2023-02-26T10:42:25;3.83;;;3.53;;
44606;SDS011;30315;46.072;14.474;2023-02-26T10:47:56;3.40;;;3.20;;
44606;SDS011;30315;46.072;14.474;2023-02-26T10:50:36;3.20;;;3.00;;
44606;SDS011;30315;46.072;14.474;2023-02-26T10:53:08;3.42;;;3.22;;
44606;SDS011;30315;46.072;14.474;2023-02-26T10:55:45;3.40;;;3.20;;
44606;SDS011;30315;46.072;14.474;2023-02-26T10:58:21;3.50;;;3.20;;
44606;SDS011;30315;46.072;14.474;2023-02-26T11:00:51;3.30;;;3.10;;
44606;SDS011;30315;46.072;14.474;2023-02-26T11:06:01;4.68;;;2.83;;
44606;SDS011;30315;46.072;14.474;2023-02-26T11:08:34;2.85;;;2.75;;
44606;SDS011;30315;46.072;14.474;2023-02-26T11:11:06;3.38;;;3.17;;
44606;SDS011;30315;46.072;14.474;2023-02-26T11:13:34;3.70;;;3.50;;
44606;SDS011;30315;46.072;14.474;2023-02-26T11:16:10;3.30;;;3.10;;
44606;SDS011;30315;46.072;14.474;2023-02-26T11:18:44;2.92;;;2.75;;
44606;SDS011;30315;46.072;14.474;2023-02-26T11:21:20;3.08;;;2.92;;
44606;SDS011;30315;46.072;14.474;2023-02-26T11:23:54;3.08;;;2.88;;
44606;SDS011;30315;46.072;14.474;2023-02-26T11:26:34;3.67;;;3.33;;
44606;SDS011;30315;46.072;14.474;2023-02-26T11:29:02;3.47;;;3.28;;
44606;SDS011;30315;46.072;14.474;2023-02-26T11:31:31;3.47;;;3.20;;
44606;SDS011;30315;46.072;14.474;2023-02-26T11:34:01;3.40;;;3.20;;
44606;SDS011;30315;46.072;14.474;2023-02-26T11:36:30;3.72;;;3.42;;
44606;SDS011;30315;46.072;14.474;2023-02-26T11:39:05;3.75;;;3.55;;
44606;SDS011;30315;46.072;14.474;2023-02-26T11:41:43;3.28;;;3.08;;
44606;SDS011;30315;46.072;14.474;2023-02-26T11:44:16;3.30;;;3.10;;
44606;SDS011;30315;46.072;14.474;2023-02-26T11:46:51;3.55;;;3.35;;
44606;SDS011;30315;46.072;14.474;2023-02-26T11:49:25;3.30;;;3.10;;
44606;SDS011;30315;46.072;14.474;2023-02-26T11:54:53;3.38;;;3.17;;
44606;SDS011;30315;46.072;14.474;2023-02-26T11:57:29;4.03;;;3.50;;
44606;SDS011;30315;46.072;14.474;2023-02-26T11:59:58;3.47;;;3.30;;
44606;SDS011;30315;46.072;14.474;2023-02-26T12:02:31;3.20;;;3.00;;
44606;SDS011;30315;46.072;14.474;2023-02-26T12:05:03;4.03;;;3.50;;
44606;SDS011;30315;46.072;14.474;2023-02-26T12:07:32;4.70;;;4.30;;
44606;SDS011;30315;46.072;14.474;2023-02-26T12:09:59;4.40;;;4.00;;
44606;SDS011;30315;46.072;14.474;2023-02-26T12:25:51;3.25;;;3.05;;
44606;SDS011;30315;46.072;14.474;2023-02-26T12:28:30;3.90;;;3.65;;
44606;SDS011;30315;46.072;14.474;2023-02-26T12:42:16;3.60;;;3.38;;
44606;SDS011;30315;46.072;14.474;2023-02-26T12:45:10;2.97;;;2.78;;
44606;SDS011;30315;46.072;14.474;2023-02-26T12:53:38;3.90;;;3.08;;
44606;SDS011;30315;46.072;14.474;2023-02-26T13:10:31;3.55;;;3.33;;
44606;SDS011;30315;46.072;14.474;2023-02-26T13:13:20;3.63;;;3.42;;
44606;SDS011;30315;46.072;14.474;2023-02-26T13:19:16;3.30;;;3.10;;
44606;SDS011;30315;46.072;14.474;2023-02-26T13:21:52;3.80;;;3.50;;
44606;SDS011;30315;46.072;14.474;2023-02-26T13:24:25;3.78;;;3.40;;
44606;SDS011;30315;46.072;14.474;2023-02-26T13:26:59;3.42;;;3.00;;
44606;SDS011;30315;46.072;14.474;2023-02-26T13:29:31;3.40;;;3.20;;
44606;SDS011;30315;46.072;14.474;2023-02-26T13:34:54;3.58;;;3.38;;
44606;SDS011;30315;46.072;14.474;2023-02-26T13:37:32;3.35;;;3.15;;
44606;SDS011;30315;46.072;14.474;2023-02-26T13:45:51;3.38;;;3.10;;
44606;SDS011;30315;46.072;14.474;2023-02-26T13:48:36;3.45;;;3.17;;
44606;SDS011;30315;46.072;14.474;2023-02-26T13:51:40;3.47;;;3.28;;
44606;SDS011;30315;46.072;14.474;2023-02-26T13:59:23;4.57;;;3.22;;
44606;SDS011;30315;46.072;14.474;2023-02-26T14:01:56;2.58;;;2.40;;
44606;SDS011;30315;46.072;14.474;2023-02-26T14:04:30;3.28;;;3.08;;
44606;SDS011;30315;46.072;14.474;2023-02-26T14:07:14;3.35;;;3.15;;
44606;SDS011;30315;46.072;14.474;2023-02-26T14:09:46;2.80;;;2.70;;
44606;SDS011;30315;46.072;14.474;2023-02-26T14:12:23;3.17;;;2.97;;
44606;SDS011;30315;46.072;14.474;2023-02-26T14:18:18;5.53;;;3.50;;
44606;SDS011;30315;46.072;14.474;2023-02-26T14:20:46;4.05;;;3.70;;
44606;SDS011;30315;46.072;14.474;2023-02-26T14:23:20;3.78;;;3.53;;
44606;SDS011;30315;46.072;14.474;2023-02-26T14:26:01;4.13;;;3.83;;
44606;SDS011;30315;46.072;14.474;2023-02-26T14:28:32;3.40;;;3.20;;
44606;SDS011;30315;46.072;14.474;2023-02-26T14:36:44;3.80;;;3.50;;
44606;SDS011;30315;46.072;14.474;2023-02-26T14:39:07;3.50;;;3.30;;
44606;SDS011;30315;46.072;14.474;2023-02-26T14:41:58;3.45;;;3.00;;
44606;SDS011;30315;46.072;14.474;2023-02-26T14:44:35;3.60;;;3.35;;
44606;SDS011;30315;46.072;14.474;2023-02-26T14:47:11;6.00;;;4.03;;
44606;SDS011;30315;46.072;14.474;2023-02-26T14:49:40;4.03;;;3.72;;
44606;SDS011;30315;46.072;14.474;2023-02-26T14:52:21;2.72;;;2.55;;
44606;SDS011;30315;46.072;14.474;2023-02-26T14:55:34;3.00;;;2.80;;
44606;SDS011;30315;46.072;14.474;2023-02-26T14:58:14;2.78;;;2.67;;
44606;SDS011;30315;46.072;14.474;2023-02-26T15:01:02;3.75;;;2.83;;
44606;SDS011;30315;46.072;14.474;2023-02-26T15:06:36;3.58;;;3.38;;
44606;SDS011;30315;46.072;14.474;2023-02-26T15:09:22;3.55;;;3.30;;
44606;SDS011;30315;46.072;14.474;2023-02-26T15:21:02;3.10;;;2.90;;
44606;SDS011;30315;46.072;14.474;2023-02-26T15:26:02;3.30;;;3.10;;
44606;SDS011;30315;46.072;14.474;2023-02-26T15:28:32;3.08;;;2.88;;
44606;SDS011;30315;46.072;14.474;2023-02-26T15:31:03;3.05;;;2.85;;
44606;SDS011;30315;46.072;14.474;2023-02-26T15:36:00;2.72;;;2.63;;
44606;SDS011;30315;46.072;14.474;2023-02-26T15:38:41;2.95;;;2.70;;
44606;SDS011;30315;46.072;14.474;2023-02-26T15:41:13;3.50;;;3.30;;
44606;SDS011;30315;46.072;14.474;2023-02-26T15:44:04;3.13;;;2.88;;
44606;SDS011;30315;46.072;14.474;2023-02-26T15:46:34;3.00;;;2.80;;
44606;SDS011;30315;46.072;14.474;2023-02-26T15:49:08;3.10;;;2.90;;
44606;SDS011;30315;46.072;14.474;2023-02-26T15:51:41;3.10;;;2.90;;
44606;SDS011;30315;46.072;14.474;2023-02-26T15:54:14;2.65;;;2.55;;
44606;SDS011;30315;46.072;14.474;2023-02-26T15:56:45;3.33;;;3.13;;
44606;SDS011;30315;46.072;14.474;2023-02-26T15:59:26;3.13;;;2.50;;
44606;SDS011;30315;46.072;14.474;2023-02-26T16:01:55;3.28;;;3.03;;
44606;SDS011;30315;46.072;14.474;2023-02-26T16:04:26;4.00;;;2.78;;
44606;SDS011;30315;46.072;14.474;2023-02-26T16:06:54;2.78;;;2.58;;
44606;SDS011;30315;46.072;14.474;2023-02-26T16:09:30;2.78;;;2.60;;
44606;SDS011;30315;46.072;14.474;2023-02-26T16:12:05;2.40;;;2.30;;
44606;SDS011;30315;46.072;14.474;2023-02-26T16:14:39;2.80;;;2.60;;
44606;SDS011;30315;46.072;14.474;2023-02-26T16:17:13;3.00;;;2.80;;
44606;SDS011;30315;46.072;14.474;2023-02-26T16:19:55;2.95;;;2.75;;
44606;SDS011;30315;46.072;14.474;2023-02-26T16:25:38;3.20;;;3.00;;
44606;SDS011;30315;46.072;14.474;2023-02-26T16:28:14;2.70;;;2.60;;
44606;SDS011;30315;46.072;14.474;2023-02-26T16:30:46;2.50;;;2.40;;
44606;SDS011;30315;46.072;14.474;2023-02-26T16:33:23;2.35;;;2.25;;
44606;SDS011;30315;46.072;14.474;2023-02-26T16:36:05;3.90;;;3.35;;
44606;SDS011;30315;46.072;14.474;2023-02-26T16:38:57;3.00;;;2.80;;
44606;SDS011;30315;46.072;14.474;2023-02-26T16:41:26;3.28;;;3.08;;
44606;SDS011;30315;46.072;14.474;2023-02-26T16:43:57;2.97;;;2.72;;
44606;SDS011;30315;46.072;14.474;2023-02-26T16:49:01;3.20;;;3.00;;
44606;SDS011;30315;46.072;14.474;2023-02-26T16:51:33;3.17;;;2.85;;
44606;SDS011;30315;46.072;14.474;2023-02-26T16:54:05;3.08;;;2.88;;
44606;SDS011;30315;46.072;14.474;2023-02-26T16:56:37;2.72;;;2.55;;
44606;SDS011;30315;46.072;14.474;2023-02-26T16:59:10;3.28;;;3.08;;
44606;SDS011;30315;46.072;14.474;2023-02-26T17:04:17;2.95;;;2.75;;
44606;SDS011;30315;46.072;14.474;2023-02-26T17:06:52;2.65;;;2.55;;
44606;SDS011;30315;46.072;14.474;2023-02-26T17:09:38;3.25;;;3.05;;
44606;SDS011;30315;46.072;14.474;2023-02-26T17:12:12;3.13;;;2.85;;
44606;SDS011;30315;46.072;14.474;2023-02-26T17:14:56;2.95;;;2.80;;
44606;SDS011;30315;46.072;14.474;2023-02-26T17:17:26;2.63;;;2.53;;
44606;SDS011;30315;46.072;14.474;2023-02-26T17:19:53;4.72;;;2.92;;
44606;SDS011;30315;46.072;14.474;2023-02-26T17:22:23;3.08;;;2.88;;
44606;SDS011;30315;46.072;14.474;2023-02-26T17:24:52;2.88;;;2.67;;
44606;SDS011;30315;46.072;14.474;2023-02-26T17:27:23;3.17;;;2.85;;
44606;SDS011;30315;46.072;14.474;2023-02-26T17:29:54;3.17;;;2.95;;
44606;SDS011;30315;46.072;14.474;2023-02-26T17:32:24;3.47;;;2.63;;
44606;SDS011;30315;46.072;14.474;2023-02-26T17:34:52;3.00;;;2.80;;
44606;SDS011;30315;46.072;14.474;2023-02-26T17:37:20;2.80;;;2.60;;
44606;SDS011;30315;46.072;14.474;2023-02-26T17:42:17;3.20;;;3.00;;
44606;SDS011;30315;46.072;14.474;2023-02-26T17:44:46;3.15;;;2.95;;
44606;SDS011;30315;46.072;14.474;2023-02-26T17:47:16;2.83;;;2.72;;
44606;SDS011;30315;46.072;14.474;2023-02-26T17:49:45;3.05;;;2.85;;
44606;SDS011;30315;46.072;14.474;2023-02-26T17:52:13;3.42;;;3.22;;
44606;SDS011;30315;46.072;14.474;2023-02-26T17:54:41;2.80;;;2.60;;
44606;SDS011;30315;46.072;14.474;2023-02-26T17:57:09;2.58;;;2.47;;
44606;SDS011;30315;46.072;14.474;2023-02-26T17:59:43;3.25;;;3.05;;
44606;SDS011;30315;46.072;14.474;2023-02-26T18:02:16;3.75;;;3.55;;
44606;SDS011;30315;46.072;14.474;2023-02-26T18:04:47;2.72;;;2.60;;